Terminal Aerodrome Forecast
Issued by NWS

Home | Current Version | Previous Version | Text Only | Print | Product List | Glossary Off
Versions: 1 2 3 4 5 6 7 8 9 10 11 12 13 14 15 16 17

595
FTUS43 KICT 260110 AAA
TAFRSL
TAF AMD
KRSL 260110Z 2601/2624 13009KT P6SM -RA OVC100
     FM260200 11007KT P6SM BKN100=

USA.gov is the U.S. government's official web portal to all federal, state and local government web resources and services.